sensor_id;sensor_type;location;lat;lon;timestamp;temperature;humidity
10149;DHT22;5115;50.920;6.376;2024-02-23T00:00:48;7.60;99.90
10149;DHT22;5115;50.920;6.376;2024-02-23T00:03:13;7.40;99.90
10149;DHT22;5115;50.920;6.376;2024-02-23T00:05:39;7.30;99.90
10149;DHT22;5115;50.920;6.376;2024-02-23T00:08:04;7.30;99.90
10149;DHT22;5115;50.920;6.376;2024-02-23T00:10:30;7.20;99.90
10149;DHT22;5115;50.920;6.376;2024-02-23T00:12:55;7.10;99.90
10149;DHT22;5115;50.920;6.376;2024-02-23T00:15:21;7.10;99.90
10149;DHT22;5115;50.920;6.376;2024-02-23T00:17:47;7.10;99.90
10149;DHT22;5115;50.920;6.376;2024-02-23T00:20:12;7.10;99.90
10149;DHT22;5115;50.920;6.376;2024-02-23T00:22:38;7.20;99.90
10149;DHT22;5115;50.920;6.376;2024-02-23T00:25:04;7.20;99.90
10149;DHT22;5115;50.920;6.376;2024-02-23T00:27:30;7.20;99.90
10149;DHT22;5115;50.920;6.376;2024-02-23T00:29:55;7.20;99.90
10149;DHT22;5115;50.920;6.376;2024-02-23T00:32:21;7.10;99.90
10149;DHT22;5115;50.920;6.376;2024-02-23T00:34:46;7.00;99.90
10149;DHT22;5115;50.920;6.376;2024-02-23T00:37:12;7.00;99.90
10149;DHT22;5115;50.920;6.376;2024-02-23T00:39:37;6.90;99.90
10149;DHT22;5115;50.920;6.376;2024-02-23T00:42:03;6.90;99.90
10149;DHT22;5115;50.920;6.376;2024-02-23T00:44:29;6.90;99.90
10149;DHT22;5115;50.920;6.376;2024-02-23T00:46:54;6.90;99.90
10149;DHT22;5115;50.920;6.376;2024-02-23T00:49:20;7.00;99.90
10149;DHT22;5115;50.920;6.376;2024-02-23T00:51:45;6.90;99.90
10149;DHT22;5115;50.920;6.376;2024-02-23T00:54:11;6.90;99.90
10149;DHT22;5115;50.920;6.376;2024-02-23T00:56:36;6.90;99.90
10149;DHT22;5115;50.920;6.376;2024-02-23T00:59:02;6.90;99.90
10149;DHT22;5115;50.920;6.376;2024-02-23T01:01:27;6.90;99.90
10149;DHT22;5115;50.920;6.376;2024-02-23T01:03:54;6.90;99.90
10149;DHT22;5115;50.920;6.376;2024-02-23T01:06:19;6.80;99.90
10149;DHT22;5115;50.920;6.376;2024-02-23T01:08:45;6.80;99.90
10149;DHT22;5115;50.920;6.376;2024-02-23T01:11:11;6.80;99.90
10149;DHT22;5115;50.920;6.376;2024-02-23T01:13:36;6.80;99.90
10149;DHT22;5115;50.920;6.376;2024-02-23T01:16:02;6.70;99.90
10149;DHT22;5115;50.920;6.376;2024-02-23T01:18:27;6.70;99.90
10149;DHT22;5115;50.920;6.376;2024-02-23T01:20:53;6.70;99.90
10149;DHT22;5115;50.920;6.376;2024-02-23T01:23:18;6.60;99.90
10149;DHT22;5115;50.920;6.376;2024-02-23T01:25:44;6.60;99.90
10149;DHT22;5115;50.920;6.376;2024-02-23T01:28:09;6.60;99.90
10149;DHT22;5115;50.920;6.376;2024-02-23T01:30:35;6.60;99.90
10149;DHT22;5115;50.920;6.376;2024-02-23T01:33:01;6.50;99.90
10149;DHT22;5115;50.920;6.376;2024-02-23T01:35:27;6.50;99.90
10149;DHT22;5115;50.920;6.376;2024-02-23T01:37:53;6.50;99.90
10149;DHT22;5115;50.920;6.376;2024-02-23T01:40:19;6.50;99.90
10149;DHT22;5115;50.920;6.376;2024-02-23T01:42:45;6.50;99.90
10149;DHT22;5115;50.920;6.376;2024-02-23T01:45:10;6.40;99.90
10149;DHT22;5115;50.920;6.376;2024-02-23T01:47:36;6.50;99.90
10149;DHT22;5115;50.920;6.376;2024-02-23T01:50:02;6.40;99.90
10149;DHT22;5115;50.920;6.376;2024-02-23T01:52:28;6.30;99.90
10149;DHT22;5115;50.920;6.376;2024-02-23T01:54:54;6.40;99.90
10149;DHT22;5115;50.920;6.376;2024-02-23T01:57:21;6.40;99.90
10149;DHT22;5115;50.920;6.376;2024-02-23T01:59:47;6.40;99.90
10149;DHT22;5115;50.920;6.376;2024-02-23T02:02:13;6.40;99.90
10149;DHT22;5115;50.920;6.376;2024-02-23T02:04:39;6.50;99.90
10149;DHT22;5115;50.920;6.376;2024-02-23T02:07:05;6.40;99.90
10149;DHT22;5115;50.920;6.376;2024-02-23T02:09:31;6.50;99.90
10149;DHT22;5115;50.920;6.376;2024-02-23T02:11:56;6.50;99.90
10149;DHT22;5115;50.920;6.376;2024-02-23T02:14:22;6.50;99.90
10149;DHT22;5115;50.920;6.376;2024-02-23T02:16:47;6.50;99.90
10149;DHT22;5115;50.920;6.376;2024-02-23T02:19:14;6.40;99.90
10149;DHT22;5115;50.920;6.376;2024-02-23T02:21:41;6.40;99.90
10149;DHT22;5115;50.920;6.376;2024-02-23T02:24:07;6.40;99.90
10149;DHT22;5115;50.920;6.376;2024-02-23T02:26:34;6.40;99.90
10149;DHT22;5115;50.920;6.376;2024-02-23T02:28:59;6.40;99.90
10149;DHT22;5115;50.920;6.376;2024-02-23T02:31:25;6.40;99.90
10149;DHT22;5115;50.920;6.376;2024-02-23T02:33:50;6.40;99.90
10149;DHT22;5115;50.920;6.376;2024-02-23T02:36:16;6.40;99.90
10149;DHT22;5115;50.920;6.376;2024-02-23T02:38:41;6.40;99.90
10149;DHT22;5115;50.920;6.376;2024-02-23T02:41:08;6.30;99.90
10149;DHT22;5115;50.920;6.376;2024-02-23T02:43:33;6.40;99.90
10149;DHT22;5115;50.920;6.376;2024-02-23T02:45:59;6.30;99.90
10149;DHT22;5115;50.920;6.376;2024-02-23T02:48:25;6.30;99.90
10149;DHT22;5115;50.920;6.376;2024-02-23T02:50:51;6.30;99.90
10149;DHT22;5115;50.920;6.376;2024-02-23T02:53:17;6.30;99.90
10149;DHT22;5115;50.920;6.376;2024-02-23T02:55:43;6.30;99.90
10149;DHT22;5115;50.920;6.376;2024-02-23T02:58:09;6.20;99.90
10149;DHT22;5115;50.920;6.376;2024-02-23T03:00:34;6.20;99.90
10149;DHT22;5115;50.920;6.376;2024-02-23T03:03:00;6.30;99.90
10149;DHT22;5115;50.920;6.376;2024-02-23T03:05:25;6.30;99.90
10149;DHT22;5115;50.920;6.376;2024-02-23T03:07:51;6.30;99.90
10149;DHT22;5115;50.920;6.376;2024-02-23T03:10:16;6.30;99.90
10149;DHT22;5115;50.920;6.376;2024-02-23T03:12:42;6.20;99.90
10149;DHT22;5115;50.920;6.376;2024-02-23T03:15:08;6.30;99.90
10149;DHT22;5115;50.920;6.376;2024-02-23T03:17:35;6.30;99.90
10149;DHT22;5115;50.920;6.376;2024-02-23T03:20:01;6.40;99.90
10149;DHT22;5115;50.920;6.376;2024-02-23T03:22:27;6.30;99.90
10149;DHT22;5115;50.920;6.376;2024-02-23T03:24:52;6.40;99.90
10149;DHT22;5115;50.920;6.376;2024-02-23T03:27:19;6.40;99.90
10149;DHT22;5115;50.920;6.376;2024-02-23T03:29:44;6.40;99.90
10149;DHT22;5115;50.920;6.376;2024-02-23T03:32:10;6.50;99.90
10149;DHT22;5115;50.920;6.376;2024-02-23T03:34:35;6.50;99.90
10149;DHT22;5115;50.920;6.376;2024-02-23T03:37:02;6.60;99.90
10149;DHT22;5115;50.920;6.376;2024-02-23T03:39:28;6.50;99.90
10149;DHT22;5115;50.920;6.376;2024-02-23T03:41:54;6.60;99.90
10149;DHT22;5115;50.920;6.376;2024-02-23T03:44:19;6.60;99.90
10149;DHT22;5115;50.920;6.376;2024-02-23T03:46:45;6.70;99.90
10149;DHT22;5115;50.920;6.376;2024-02-23T03:49:10;6.70;99.90
10149;DHT22;5115;50.920;6.376;2024-02-23T03:51:37;6.70;99.90
10149;DHT22;5115;50.920;6.376;2024-02-23T03:54:05;6.70;99.90
10149;DHT22;5115;50.920;6.376;2024-02-23T03:56:38;6.80;99.90
10149;DHT22;5115;50.920;6.376;2024-02-23T03:59:04;6.80;99.90
10149;DHT22;5115;50.920;6.376;2024-02-23T04:01:30;6.90;99.90
10149;DHT22;5115;50.920;6.376;2024-02-23T04:03:55;6.90;99.90
10149;DHT22;5115;50.920;6.376;2024-02-23T04:06:21;7.00;99.90
10149;DHT22;5115;50.920;6.376;2024-02-23T04:08:46;7.00;99.90
10149;DHT22;5115;50.920;6.376;2024-02-23T04:11:13;7.00;99.90
10149;DHT22;5115;50.920;6.376;2024-02-23T04:13:38;7.00;99.90
10149;DHT22;5115;50.920;6.376;2024-02-23T04:16:04;7.00;99.90
10149;DHT22;5115;50.920;6.376;2024-02-23T04:18:29;7.00;99.90
10149;DHT22;5115;50.920;6.376;2024-02-23T04:20:56;7.00;99.90
10149;DHT22;5115;50.920;6.376;2024-02-23T04:23:22;6.90;99.90
10149;DHT22;5115;50.920;6.376;2024-02-23T04:25:47;6.90;99.90
10149;DHT22;5115;50.920;6.376;2024-02-23T04:28:13;6.90;99.90
10149;DHT22;5115;50.920;6.376;2024-02-23T04:30:38;7.00;99.90
10149;DHT22;5115;50.920;6.376;2024-02-23T04:33:04;7.00;99.90
10149;DHT22;5115;50.920;6.376;2024-02-23T04:35:29;7.00;99.90
10149;DHT22;5115;50.920;6.376;2024-02-23T04:37:55;7.00;99.90
10149;DHT22;5115;50.920;6.376;2024-02-23T04:40:20;7.00;99.90
10149;DHT22;5115;50.920;6.376;2024-02-23T04:42:46;7.00;99.90
10149;DHT22;5115;50.920;6.376;2024-02-23T04:45:12;7.00;99.90
10149;DHT22;5115;50.920;6.376;2024-02-23T04:47:38;7.00;99.90
10149;DHT22;5115;50.920;6.376;2024-02-23T04:50:06;6.90;99.90
10149;DHT22;5115;50.920;6.376;2024-02-23T04:52:32;6.90;99.90
10149;DHT22;5115;50.920;6.376;2024-02-23T04:54:57;6.80;99.90
10149;DHT22;5115;50.920;6.376;2024-02-23T04:57:23;6.80;99.90
10149;DHT22;5115;50.920;6.376;2024-02-23T04:59:48;6.70;99.90
10149;DHT22;5115;50.920;6.376;2024-02-23T05:02:14;6.70;99.90
10149;DHT22;5115;50.920;6.376;2024-02-23T05:04:40;6.70;99.90
10149;DHT22;5115;50.920;6.376;2024-02-23T05:07:05;6.70;99.90
10149;DHT22;5115;50.920;6.376;2024-02-23T05:09:31;6.80;99.90
10149;DHT22;5115;50.920;6.376;2024-02-23T05:11:57;6.80;99.90
10149;DHT22;5115;50.920;6.376;2024-02-23T05:14:23;6.80;99.90
10149;DHT22;5115;50.920;6.376;2024-02-23T05:16:48;6.70;99.90
10149;DHT22;5115;50.920;6.376;2024-02-23T05:19:14;6.70;99.90
10149;DHT22;5115;50.920;6.376;2024-02-23T05:21:39;6.60;99.90
10149;DHT22;5115;50.920;6.376;2024-02-23T05:24:05;6.60;99.90
10149;DHT22;5115;50.920;6.376;2024-02-23T05:26:31;6.60;99.90
10149;DHT22;5115;50.920;6.376;2024-02-23T05:28:57;6.60;99.90
10149;DHT22;5115;50.920;6.376;2024-02-23T05:31:43;6.70;99.90
10149;DHT22;5115;50.920;6.376;2024-02-23T05:34:09;6.70;99.90
10149;DHT22;5115;50.920;6.376;2024-02-23T05:36:34;6.70;99.90
10149;DHT22;5115;50.920;6.376;2024-02-23T05:39:00;6.70;99.90
10149;DHT22;5115;50.920;6.376;2024-02-23T05:41:25;6.80;99.90
10149;DHT22;5115;50.920;6.376;2024-02-23T05:43:50;6.80;99.90
10149;DHT22;5115;50.920;6.376;2024-02-23T05:46:16;6.80;99.90
10149;DHT22;5115;50.920;6.376;2024-02-23T05:48:43;6.80;99.90
10149;DHT22;5115;50.920;6.376;2024-02-23T05:51:08;6.80;99.90
10149;DHT22;5115;50.920;6.376;2024-02-23T05:53:34;6.80;99.90
10149;DHT22;5115;50.920;6.376;2024-02-23T05:55:59;6.70;99.90
10149;DHT22;5115;50.920;6.376;2024-02-23T05:58:25;6.70;99.90
10149;DHT22;5115;50.920;6.376;2024-02-23T06:00:50;6.70;99.90
10149;DHT22;5115;50.920;6.376;2024-02-23T06:03:17;6.70;99.90
10149;DHT22;5115;50.920;6.376;2024-02-23T06:05:43;6.70;99.90
10149;DHT22;5115;50.920;6.376;2024-02-23T06:08:09;6.60;99.90
10149;DHT22;5115;50.920;6.376;2024-02-23T06:10:34;6.70;99.90
10149;DHT22;5115;50.920;6.376;2024-02-23T06:13:00;6.70;99.90
10149;DHT22;5115;50.920;6.376;2024-02-23T06:15:25;6.70;99.90
10149;DHT22;5115;50.920;6.376;2024-02-23T06:17:51;6.60;99.90
10149;DHT22;5115;50.920;6.376;2024-02-23T06:20:17;6.60;99.90
10149;DHT22;5115;50.920;6.376;2024-02-23T06:22:43;6.60;99.90
10149;DHT22;5115;50.920;6.376;2024-02-23T06:25:09;6.50;99.90
10149;DHT22;5115;50.920;6.376;2024-02-23T06:27:35;6.50;99.90
10149;DHT22;5115;50.920;6.376;2024-02-23T06:30:01;6.50;99.90
10149;DHT22;5115;50.920;6.376;2024-02-23T06:32:26;6.50;99.90
10149;DHT22;5115;50.920;6.376;2024-02-23T06:34:52;6.50;99.90
10149;DHT22;5115;50.920;6.376;2024-02-23T06:37:17;6.50;99.90
10149;DHT22;5115;50.920;6.376;2024-02-23T06:39:43;6.50;99.90
10149;DHT22;5115;50.920;6.376;2024-02-23T06:42:09;6.50;99.90
10149;DHT22;5115;50.920;6.376;2024-02-23T06:44:35;6.50;99.90
10149;DHT22;5115;50.920;6.376;2024-02-23T06:47:00;6.50;99.90
10149;DHT22;5115;50.920;6.376;2024-02-23T06:49:26;6.50;99.90
10149;DHT22;5115;50.920;6.376;2024-02-23T06:51:51;6.50;99.90
10149;DHT22;5115;50.920;6.376;2024-02-23T06:54:17;6.50;99.90
10149;DHT22;5115;50.920;6.376;2024-02-23T06:56:43;6.60;99.90
10149;DHT22;5115;50.920;6.376;2024-02-23T06:59:08;6.80;99.90
10149;DHT22;5115;50.920;6.376;2024-02-23T07:01:34;6.80;99.90
10149;DHT22;5115;50.920;6.376;2024-02-23T07:04:01;7.10;99.90
10149;DHT22;5115;50.920;6.376;2024-02-23T07:06:26;7.50;99.90
10149;DHT22;5115;50.920;6.376;2024-02-23T07:08:54;7.80;99.90
10149;DHT22;5115;50.920;6.376;2024-02-23T07:11:20;8.30;99.90
10149;DHT22;5115;50.920;6.376;2024-02-23T07:13:45;8.80;99.90
10149;DHT22;5115;50.920;6.376;2024-02-23T07:16:11;9.30;99.90
10149;DHT22;5115;50.920;6.376;2024-02-23T07:18:37;9.50;99.90
10149;DHT22;5115;50.920;6.376;2024-02-23T07:21:02;9.40;99.90
10149;DHT22;5115;50.920;6.376;2024-02-23T07:23:28;9.80;99.90
10149;DHT22;5115;50.920;6.376;2024-02-23T07:25:53;10.20;99.90
10149;DHT22;5115;50.920;6.376;2024-02-23T07:28:20;10.80;99.90
10149;DHT22;5115;50.920;6.376;2024-02-23T07:30:47;11.10;99.90
10149;DHT22;5115;50.920;6.376;2024-02-23T07:33:13;11.50;99.90
10149;DHT22;5115;50.920;6.376;2024-02-23T07:35:38;11.60;99.90
10149;DHT22;5115;50.920;6.376;2024-02-23T07:38:04;12.00;99.90
10149;DHT22;5115;50.920;6.376;2024-02-23T07:40:29;12.20;99.90
10149;DHT22;5115;50.920;6.376;2024-02-23T07:42:57;12.70;99.90
10149;DHT22;5115;50.920;6.376;2024-02-23T07:45:22;12.90;99.90
10149;DHT22;5115;50.920;6.376;2024-02-23T07:47:48;12.70;99.90
10149;DHT22;5115;50.920;6.376;2024-02-23T07:50:13;11.90;99.90
10149;DHT22;5115;50.920;6.376;2024-02-23T07:52:41;11.20;99.90
10149;DHT22;5115;50.920;6.376;2024-02-23T07:55:07;10.60;99.90
10149;DHT22;5115;50.920;6.376;2024-02-23T07:57:33;10.40;99.90
10149;DHT22;5115;50.920;6.376;2024-02-23T08:00:00;10.10;99.90
10149;DHT22;5115;50.920;6.376;2024-02-23T08:02:25;10.50;99.90
10149;DHT22;5115;50.920;6.376;2024-02-23T08:04:52;10.70;99.90
10149;DHT22;5115;50.920;6.376;2024-02-23T08:07:17;10.50;99.90
10149;DHT22;5115;50.920;6.376;2024-02-23T08:09:43;9.80;99.90
10149;DHT22;5115;50.920;6.376;2024-02-23T08:12:09;9.50;99.90
10149;DHT22;5115;50.920;6.376;2024-02-23T08:14:34;9.50;99.90
10149;DHT22;5115;50.920;6.376;2024-02-23T08:17:00;9.40;99.90
10149;DHT22;5115;50.920;6.376;2024-02-23T08:19:25;9.50;99.90
10149;DHT22;5115;50.920;6.376;2024-02-23T08:21:51;9.90;99.90
10149;DHT22;5115;50.920;6.376;2024-02-23T08:24:16;10.30;99.90
10149;DHT22;5115;50.920;6.376;2024-02-23T08:26:42;11.00;99.90
10149;DHT22;5115;50.920;6.376;2024-02-23T08:29:08;11.30;99.90
10149;DHT22;5115;50.920;6.376;2024-02-23T08:31:34;11.30;99.90
10149;DHT22;5115;50.920;6.376;2024-02-23T08:33:59;11.20;99.90
10149;DHT22;5115;50.920;6.376;2024-02-23T08:36:25;11.00;99.90
10149;DHT22;5115;50.920;6.376;2024-02-23T08:38:50;10.70;99.90
10149;DHT22;5115;50.920;6.376;2024-02-23T08:41:16;10.30;99.90
10149;DHT22;5115;50.920;6.376;2024-02-23T08:43:41;10.00;99.90
10149;DHT22;5115;50.920;6.376;2024-02-23T08:46:07;10.00;99.90
10149;DHT22;5115;50.920;6.376;2024-02-23T08:48:33;9.80;99.90
10149;DHT22;5115;50.920;6.376;2024-02-23T08:50:58;9.90;99.90
10149;DHT22;5115;50.920;6.376;2024-02-23T08:53:24;10.00;99.90
10149;DHT22;5115;50.920;6.376;2024-02-23T08:55:49;9.70;99.90
10149;DHT22;5115;50.920;6.376;2024-02-23T08:58:15;9.40;99.90
10149;DHT22;5115;50.920;6.376;2024-02-23T09:00:41;9.20;99.90
10149;DHT22;5115;50.920;6.376;2024-02-23T09:03:06;9.20;99.90
10149;DHT22;5115;50.920;6.376;2024-02-23T09:05:32;9.50;99.90
10149;DHT22;5115;50.920;6.376;2024-02-23T09:07:57;9.80;99.90
10149;DHT22;5115;50.920;6.376;2024-02-23T09:10:23;10.20;99.90
10149;DHT22;5115;50.920;6.376;2024-02-23T09:12:48;10.40;99.90
10149;DHT22;5115;50.920;6.376;2024-02-23T09:15:14;10.40;99.90
10149;DHT22;5115;50.920;6.376;2024-02-23T09:17:40;10.20;99.90
10149;DHT22;5115;50.920;6.376;2024-02-23T09:20:07;9.90;99.90
10149;DHT22;5115;50.920;6.376;2024-02-23T09:22:33;10.40;99.90
10149;DHT22;5115;50.920;6.376;2024-02-23T09:24:58;11.00;99.90
10149;DHT22;5115;50.920;6.376;2024-02-23T09:27:24;11.10;99.90
10149;DHT22;5115;50.920;6.376;2024-02-23T09:29:49;10.90;99.90
10149;DHT22;5115;50.920;6.376;2024-02-23T09:32:15;10.50;99.90
10149;DHT22;5115;50.920;6.376;2024-02-23T09:34:41;10.40;99.90
10149;DHT22;5115;50.920;6.376;2024-02-23T09:37:06;10.30;99.90
10149;DHT22;5115;50.920;6.376;2024-02-23T09:39:32;10.20;99.90
10149;DHT22;5115;50.920;6.376;2024-02-23T09:41:57;10.40;99.90
10149;DHT22;5115;50.920;6.376;2024-02-23T09:44:23;10.50;99.90
10149;DHT22;5115;50.920;6.376;2024-02-23T09:46:49;10.60;99.90
10149;DHT22;5115;50.920;6.376;2024-02-23T09:49:17;10.40;99.90
10149;DHT22;5115;50.920;6.376;2024-02-23T09:51:43;10.70;99.90
10149;DHT22;5115;50.920;6.376;2024-02-23T09:54:10;11.60;99.90
10149;DHT22;5115;50.920;6.376;2024-02-23T09:56:36;13.20;99.90
10149;DHT22;5115;50.920;6.376;2024-02-23T09:59:03;14.30;99.90
10149;DHT22;5115;50.920;6.376;2024-02-23T10:01:32;13.80;99.90
10149;DHT22;5115;50.920;6.376;2024-02-23T10:04:00;14.20;99.90
10149;DHT22;5115;50.920;6.376;2024-02-23T10:06:27;13.50;99.90
10149;DHT22;5115;50.920;6.376;2024-02-23T10:08:53;12.60;99.90
10149;DHT22;5115;50.920;6.376;2024-02-23T10:11:21;11.80;99.90
10149;DHT22;5115;50.920;6.376;2024-02-23T10:13:48;11.10;99.90
10149;DHT22;5115;50.920;6.376;2024-02-23T10:16:18;10.70;99.90
10149;DHT22;5115;50.920;6.376;2024-02-23T10:18:46;10.40;99.90
10149;DHT22;5115;50.920;6.376;2024-02-23T10:21:12;10.40;99.90
10149;DHT22;5115;50.920;6.376;2024-02-23T10:23:38;10.40;99.90
10149;DHT22;5115;50.920;6.376;2024-02-23T10:26:05;10.50;99.90
10149;DHT22;5115;50.920;6.376;2024-02-23T10:28:31;10.60;99.90
10149;DHT22;5115;50.920;6.376;2024-02-23T10:30:56;10.50;99.90
10149;DHT22;5115;50.920;6.376;2024-02-23T10:33:23;10.40;99.90
10149;DHT22;5115;50.920;6.376;2024-02-23T10:35:56;10.40;99.90
10149;DHT22;5115;50.920;6.376;2024-02-23T10:38:23;10.30;99.90
10149;DHT22;5115;50.920;6.376;2024-02-23T10:40:49;10.10;99.90
10149;DHT22;5115;50.920;6.376;2024-02-23T10:43:19;9.90;99.90
10149;DHT22;5115;50.920;6.376;2024-02-23T10:45:48;9.90;99.90
10149;DHT22;5115;50.920;6.376;2024-02-23T10:48:15;9.70;99.90
10149;DHT22;5115;50.920;6.376;2024-02-23T10:50:41;9.60;99.90
10149;DHT22;5115;50.920;6.376;2024-02-23T10:53:10;9.70;99.90
10149;DHT22;5115;50.920;6.376;2024-02-23T10:55:37;9.80;99.90
10149;DHT22;5115;50.920;6.376;2024-02-23T10:58:06;9.80;99.90
10149;DHT22;5115;50.920;6.376;2024-02-23T11:00:34;10.00;99.90
10149;DHT22;5115;50.920;6.376;2024-02-23T11:03:00;10.30;99.90
10149;DHT22;5115;50.920;6.376;2024-02-23T11:05:27;10.50;99.90
10149;DHT22;5115;50.920;6.376;2024-02-23T11:07:56;10.60;99.90
10149;DHT22;5115;50.920;6.376;2024-02-23T11:10:22;10.60;99.90
10149;DHT22;5115;50.920;6.376;2024-02-23T11:12:59;10.50;99.90
10149;DHT22;5115;50.920;6.376;2024-02-23T11:15:30;10.50;99.90
10149;DHT22;5115;50.920;6.376;2024-02-23T11:17:56;10.40;99.90
10149;DHT22;5115;50.920;6.376;2024-02-23T11:20:21;10.40;99.90
10149;DHT22;5115;50.920;6.376;2024-02-23T11:22:52;10.20;99.90
10149;DHT22;5115;50.920;6.376;2024-02-23T11:25:26;10.10;99.90
10149;DHT22;5115;50.920;6.376;2024-02-23T11:27:52;10.00;99.90
10149;DHT22;5115;50.920;6.376;2024-02-23T11:30:18;10.10;99.90
10149;DHT22;5115;50.920;6.376;2024-02-23T11:32:45;10.00;99.90
10149;DHT22;5115;50.920;6.376;2024-02-23T11:35:13;10.00;99.90
10149;DHT22;5115;50.920;6.376;2024-02-23T11:37:52;10.00;99.90
10149;DHT22;5115;50.920;6.376;2024-02-23T11:40:30;10.10;99.90
10149;DHT22;5115;50.920;6.376;2024-02-23T11:42:56;10.00;99.90
10149;DHT22;5115;50.920;6.376;2024-02-23T11:45:23;10.00;99.90
10149;DHT22;5115;50.920;6.376;2024-02-23T11:47:49;9.90;99.90
10149;DHT22;5115;50.920;6.376;2024-02-23T11:50:14;9.80;99.90
10149;DHT22;5115;50.920;6.376;2024-02-23T11:52:46;9.70;99.90
10149;DHT22;5115;50.920;6.376;2024-02-23T11:55:12;9.70;99.90
10149;DHT22;5115;50.920;6.376;2024-02-23T11:57:38;9.80;99.90
10149;DHT22;5115;50.920;6.376;2024-02-23T12:00:05;10.00;99.90
10149;DHT22;5115;50.920;6.376;2024-02-23T12:02:33;10.20;99.90
10149;DHT22;5115;50.920;6.376;2024-02-23T12:04:58;10.20;99.90
10149;DHT22;5115;50.920;6.376;2024-02-23T12:07:24;10.30;99.90
10149;DHT22;5115;50.920;6.376;2024-02-23T12:09:52;10.50;99.90
10149;DHT22;5115;50.920;6.376;2024-02-23T12:12:17;10.50;99.90
10149;DHT22;5115;50.920;6.376;2024-02-23T12:14:44;10.40;99.90
10149;DHT22;5115;50.920;6.376;2024-02-23T12:17:09;10.40;99.90
10149;DHT22;5115;50.920;6.376;2024-02-23T12:19:39;10.30;99.90
10149;DHT22;5115;50.920;6.376;2024-02-23T12:22:05;10.40;99.90
10149;DHT22;5115;50.920;6.376;2024-02-23T12:24:30;10.40;99.90
10149;DHT22;5115;50.920;6.376;2024-02-23T12:26:56;10.40;99.90
10149;DHT22;5115;50.920;6.376;2024-02-23T12:29:22;10.30;99.90
10149;DHT22;5115;50.920;6.376;2024-02-23T12:31:48;10.40;99.90
10149;DHT22;5115;50.920;6.376;2024-02-23T12:34:14;10.40;99.90
10149;DHT22;5115;50.920;6.376;2024-02-23T12:36:40;10.60;99.90
10149;DHT22;5115;50.920;6.376;2024-02-23T12:39:05;10.60;99.90
10149;DHT22;5115;50.920;6.376;2024-02-23T12:41:31;10.70;99.90
10149;DHT22;5115;50.920;6.376;2024-02-23T12:43:58;10.60;99.90
10149;DHT22;5115;50.920;6.376;2024-02-23T12:46:23;10.50;99.90
10149;DHT22;5115;50.920;6.376;2024-02-23T12:48:49;10.70;99.90
10149;DHT22;5115;50.920;6.376;2024-02-23T12:51:15;10.80;99.90
10149;DHT22;5115;50.920;6.376;2024-02-23T12:53:42;10.90;99.90
10149;DHT22;5115;50.920;6.376;2024-02-23T12:56:09;10.80;99.90
10149;DHT22;5115;50.920;6.376;2024-02-23T12:58:40;10.80;99.90
10149;DHT22;5115;50.920;6.376;2024-02-23T13:01:06;10.70;99.90
10149;DHT22;5115;50.920;6.376;2024-02-23T13:03:33;10.60;99.90
10149;DHT22;5115;50.920;6.376;2024-02-23T13:05:59;10.60;99.90
10149;DHT22;5115;50.920;6.376;2024-02-23T13:08:25;10.60;99.90
10149;DHT22;5115;50.920;6.376;2024-02-23T13:10:51;10.70;99.90
10149;DHT22;5115;50.920;6.376;2024-02-23T13:13:18;10.70;99.90
10149;DHT22;5115;50.920;6.376;2024-02-23T13:15:47;10.70;99.90
10149;DHT22;5115;50.920;6.376;2024-02-23T13:18:13;10.60;99.90
10149;DHT22;5115;50.920;6.376;2024-02-23T13:20:39;10.80;99.90
10149;DHT22;5115;50.920;6.376;2024-02-23T13:23:07;10.70;99.90
10149;DHT22;5115;50.920;6.376;2024-02-23T13:25:36;10.80;99.90
10149;DHT22;5115;50.920;6.376;2024-02-23T13:28:02;10.90;99.90
10149;DHT22;5115;50.920;6.376;2024-02-23T13:30:28;11.00;99.90
10149;DHT22;5115;50.920;6.376;2024-02-23T13:32:54;11.20;99.90
10149;DHT22;5115;50.920;6.376;2024-02-23T13:35:20;11.10;99.90
10149;DHT22;5115;50.920;6.376;2024-02-23T13:37:45;11.00;99.90
10149;DHT22;5115;50.920;6.376;2024-02-23T13:40:11;11.10;99.90
10149;DHT22;5115;50.920;6.376;2024-02-23T13:42:37;11.30;99.90
10149;DHT22;5115;50.920;6.376;2024-02-23T13:45:07;11.40;99.90
10149;DHT22;5115;50.920;6.376;2024-02-23T13:47:34;11.40;99.90
10149;DHT22;5115;50.920;6.376;2024-02-23T13:50:00;11.50;99.90
10149;DHT22;5115;50.920;6.376;2024-02-23T13:52:25;11.40;99.90
10149;DHT22;5115;50.920;6.376;2024-02-23T13:54:51;11.10;99.90
10149;DHT22;5115;50.920;6.376;2024-02-23T13:57:16;11.30;99.90
10149;DHT22;5115;50.920;6.376;2024-02-23T13:59:42;11.20;99.90
10149;DHT22;5115;50.920;6.376;2024-02-23T14:02:07;11.10;99.90
10149;DHT22;5115;50.920;6.376;2024-02-23T14:04:33;11.10;99.90
10149;DHT22;5115;50.920;6.376;2024-02-23T14:06:58;11.00;99.90
10149;DHT22;5115;50.920;6.376;2024-02-23T14:09:24;10.80;99.90
10149;DHT22;5115;50.920;6.376;2024-02-23T14:11:49;10.70;99.90
10149;DHT22;5115;50.920;6.376;2024-02-23T14:14:15;10.70;99.90
10149;DHT22;5115;50.920;6.376;2024-02-23T14:16:41;10.70;99.90
10149;DHT22;5115;50.920;6.376;2024-02-23T14:19:07;10.60;99.90
10149;DHT22;5115;50.920;6.376;2024-02-23T14:21:32;10.60;99.90
10149;DHT22;5115;50.920;6.376;2024-02-23T14:23:58;10.60;99.90
10149;DHT22;5115;50.920;6.376;2024-02-23T14:26:24;10.80;99.90
10149;DHT22;5115;50.920;6.376;2024-02-23T14:28:49;10.80;99.90
10149;DHT22;5115;50.920;6.376;2024-02-23T14:31:15;10.60;99.90
10149;DHT22;5115;50.920;6.376;2024-02-23T14:33:40;10.70;99.90
10149;DHT22;5115;50.920;6.376;2024-02-23T14:36:06;10.70;99.90
10149;DHT22;5115;50.920;6.376;2024-02-23T14:38:32;10.80;99.90
10149;DHT22;5115;50.920;6.376;2024-02-23T14:40:57;10.90;99.90
10149;DHT22;5115;50.920;6.376;2024-02-23T14:43:24;11.00;99.90
10149;DHT22;5115;50.920;6.376;2024-02-23T14:45:49;10.80;99.90
10149;DHT22;5115;50.920;6.376;2024-02-23T14:48:17;10.80;99.90
10149;DHT22;5115;50.920;6.376;2024-02-23T14:50:43;10.70;99.90
10149;DHT22;5115;50.920;6.376;2024-02-23T14:53:09;10.70;99.90
10149;DHT22;5115;50.920;6.376;2024-02-23T14:55:35;10.70;99.90
10149;DHT22;5115;50.920;6.376;2024-02-23T14:58:01;10.60;99.90
10149;DHT22;5115;50.920;6.376;2024-02-23T15:00:26;10.60;99.90
10149;DHT22;5115;50.920;6.376;2024-02-23T15:02:55;10.60;99.90
10149;DHT22;5115;50.920;6.376;2024-02-23T15:05:21;10.70;99.90
10149;DHT22;5115;50.920;6.376;2024-02-23T15:07:47;10.70;99.90
10149;DHT22;5115;50.920;6.376;2024-02-23T15:10:13;10.70;99.90
10149;DHT22;5115;50.920;6.376;2024-02-23T15:12:38;10.70;99.90
10149;DHT22;5115;50.920;6.376;2024-02-23T15:15:04;10.70;99.90
10149;DHT22;5115;50.920;6.376;2024-02-23T15:17:31;10.70;99.90
10149;DHT22;5115;50.920;6.376;2024-02-23T15:19:57;10.70;99.90
10149;DHT22;5115;50.920;6.376;2024-02-23T15:22:22;10.70;99.90
10149;DHT22;5115;50.920;6.376;2024-02-23T15:24:48;10.70;99.90
10149;DHT22;5115;50.920;6.376;2024-02-23T15:27:18;10.80;99.90
10149;DHT22;5115;50.920;6.376;2024-02-23T15:29:45;10.80;99.90
10149;DHT22;5115;50.920;6.376;2024-02-23T15:32:10;10.70;99.90
10149;DHT22;5115;50.920;6.376;2024-02-23T15:34:36;10.60;99.90
10149;DHT22;5115;50.920;6.376;2024-02-23T15:37:01;10.50;99.90
10149;DHT22;5115;50.920;6.376;2024-02-23T15:39:28;10.40;99.90
10149;DHT22;5115;50.920;6.376;2024-02-23T15:41:53;10.40;99.90
10149;DHT22;5115;50.920;6.376;2024-02-23T15:44:19;10.30;99.90
10149;DHT22;5115;50.920;6.376;2024-02-23T15:46:44;10.40;99.90